createdAt,value
2022-10-13T00:00:11.236Z,99040.00
2022-10-13T00:04:15.698Z,99047.34
2022-10-13T00:08:20.731Z,99042.84
2022-10-13T00:12:22.747Z,99055.47
2022-10-13T00:16:25.196Z,99047.44
2022-10-13T00:20:27.165Z,99046.84
2022-10-13T00:24:29.426Z,99053.03
2022-10-13T00:28:31.553Z,99053.78
2022-10-13T00:32:33.784Z,99049.50
2022-10-13T00:36:35.699Z,99050.13
2022-10-13T00:40:51.630Z,99051.25
2022-10-13T00:45:13.987Z,99053.13
2022-10-13T00:49:15.930Z,99034.09
2022-10-13T00:53:24.475Z,99029.53
2022-10-13T00:57:27.059Z,99026.63
2022-10-13T01:01:29.126Z,99018.06
2022-10-13T01:05:31.559Z,99017.81
2022-10-13T01:09:38.003Z,99025.59
2022-10-13T01:13:51.516Z,99028.53
2022-10-13T01:18:02.819Z,99010.78
2022-10-13T01:22:34.045Z,99024.78
2022-10-13T01:27:11.889Z,99017.03
2022-10-13T01:31:32.385Z,99008.16
2022-10-13T01:35:52.956Z,99006.88
2022-10-13T01:40:07.096Z,99003.66
2022-10-13T01:44:25.140Z,99005.59
2022-10-13T01:48:29.164Z,98996.78
2022-10-13T01:52:35.874Z,99007.25
2022-10-13T01:56:37.817Z,99000.00
2022-10-13T02:00:46.407Z,98989.28
2022-10-13T02:05:15.911Z,98985.75
2022-10-13T02:09:37.659Z,98977.94
2022-10-13T02:13:45.477Z,98979.81
2022-10-13T02:17:57.911Z,98975.59
2022-10-13T02:22:02.874Z,98962.47
2022-10-13T02:26:05.451Z,98966.44
2022-10-13T02:30:08.444Z,98960.59
2022-10-13T02:34:10.762Z,98954.16
2022-10-13T02:38:13.238Z,98956.59
2022-10-13T02:42:15.318Z,98950.97
2022-10-13T02:46:17.452Z,98957.63
2022-10-13T02:50:19.809Z,98960.88
2022-10-13T02:54:25.405Z,98956.56
2022-10-13T02:58:27.345Z,98957.59
2022-10-13T03:02:29.449Z,98951.16
2022-10-13T03:06:31.379Z,98956.56
2022-10-13T03:10:33.398Z,98950.38
2022-10-13T03:14:35.466Z,98956.00
2022-10-13T03:18:37.943Z,98954.44
2022-10-13T03:22:40.373Z,98949.31
2022-10-13T03:26:42.735Z,98942.13
2022-10-13T03:30:44.995Z,98949.31
2022-10-13T03:34:46.985Z,98943.16
2022-10-13T03:38:48.975Z,98943.97
2022-10-13T03:42:50.907Z,98938.06
2022-10-13T03:46:53.196Z,98945.81
2022-10-13T03:50:56.069Z,98950.91
2022-10-13T03:54:58.117Z,98953.31
2022-10-13T03:59:01.204Z,98952.84
2022-10-13T04:03:03.345Z,98937.00
2022-10-13T04:07:06.985Z,98948.81
2022-10-13T04:11:12.992Z,98938.66
2022-10-13T04:15:15.518Z,98941.38
2022-10-13T04:19:17.835Z,98946.44
2022-10-13T04:23:19.781Z,98950.50
2022-10-13T04:27:23.600Z,98949.19
2022-10-13T04:31:27.980Z,98948.38
2022-10-13T04:35:29.968Z,98943.84
2022-10-13T04:39:31.988Z,98945.50
2022-10-13T04:43:34.723Z,98944.16
2022-10-13T04:47:38.031Z,98953.53
2022-10-13T04:51:39.951Z,98957.56
2022-10-13T04:55:42.162Z,98948.44
2022-10-13T04:59:44.258Z,98953.00
2022-10-13T05:03:46.661Z,98962.94
2022-10-13T05:07:48.738Z,98963.69
2022-10-13T05:11:50.790Z,98964.78
2022-10-13T05:15:52.720Z,98963.69
2022-10-13T05:19:56.712Z,98950.59
2022-10-13T05:24:00.020Z,98950.84
2022-10-13T05:28:02.882Z,98945.50
2022-10-13T05:32:05.913Z,98952.19
2022-10-13T05:36:10.986Z,98946.59
2022-10-13T05:40:14.015Z,98948.97
2022-10-13T05:44:17.539Z,98945.78
2022-10-13T05:48:29.438Z,98935.88
2022-10-13T05:52:33.602Z,98927.34
2022-10-13T05:56:58.402Z,98934.31
2022-10-13T06:01:07.128Z,98938.03
2022-10-13T06:05:15.091Z,98937.75
2022-10-13T06:09:18.087Z,98943.34
2022-10-13T06:13:20.186Z,98945.47
2022-10-13T06:17:22.158Z,98947.28
2022-10-13T06:21:24.251Z,98951.28
2022-10-13T06:25:26.387Z,98952.84
2022-10-13T06:29:28.366Z,98954.63
2022-10-13T06:33:30.378Z,98968.78
2022-10-13T06:37:32.464Z,98961.22
2022-10-13T06:41:34.802Z,98961.97
2022-10-13T06:45:36.811Z,98973.94
2022-10-13T06:49:38.836Z,98974.41
2022-10-13T06:53:40.794Z,98981.28
2022-10-13T06:57:43.242Z,98975.28
2022-10-13T07:01:45.677Z,98981.50
2022-10-13T07:05:47.866Z,98973.75
2022-10-13T07:09:50.253Z,98970.31
2022-10-13T07:13:54.585Z,98961.06
2022-10-13T07:17:56.706Z,98972.19
2022-10-13T07:21:58.867Z,98969.75
2022-10-13T07:26:01.857Z,98970.56
2022-10-13T07:30:06.263Z,98979.25
2022-10-13T07:34:08.590Z,98967.06
2022-10-13T07:38:11.704Z,98963.56
2022-10-13T07:42:17.272Z,98967.09
2022-10-13T07:46:19.259Z,98968.53
2022-10-13T07:50:21.335Z,98967.25
2022-10-13T07:54:26.525Z,98969.28
2022-10-13T07:58:29.620Z,98974.66
2022-10-13T08:02:31.813Z,98967.38
2022-10-13T08:06:36.000Z,98963.91
2022-10-13T08:10:38.427Z,98958.41
2022-10-13T08:14:40.550Z,98953.75
2022-10-13T08:18:43.506Z,98958.41
2022-10-13T08:22:45.652Z,98956.94
2022-10-13T08:26:47.621Z,98946.59
2022-10-13T08:30:51.957Z,98956.16
2022-10-13T08:34:54.630Z,98952.72
2022-10-13T08:38:57.501Z,98942.44
2022-10-13T08:43:00.493Z,98931.13
2022-10-13T08:47:21.831Z,98935.06
2022-10-13T08:51:23.797Z,98931.84
2022-10-13T08:55:31.856Z,98928.91
2022-10-13T08:59:33.850Z,98934.94
2022-10-13T09:04:08.187Z,98932.13
2022-10-13T09:08:19.472Z,98931.53
2022-10-13T09:12:24.430Z,98919.00
2022-10-13T09:16:45.680Z,98918.31
2022-10-13T09:20:47.640Z,98920.63
2022-10-13T09:25:08.093Z,98917.47
2022-10-13T09:29:19.330Z,98908.28
2022-10-13T09:33:24.161Z,98909.22
2022-10-13T09:37:26.730Z,98906.53
2022-10-13T09:41:28.734Z,98897.13
2022-10-13T09:45:31.134Z,98894.59
2022-10-13T09:49:35.867Z,98893.63
2022-10-13T09:53:41.214Z,98898.06
2022-10-13T09:57:48.297Z,98895.53
2022-10-13T10:01:53.048Z,98888.06
2022-10-13T10:06:07.839Z,98883.47
2022-10-13T10:10:25.989Z,98888.91
2022-10-13T10:14:29.210Z,98887.16
2022-10-13T10:19:12.596Z,98884.13
2022-10-13T10:23:23.030Z,98882.06
2022-10-13T10:27:32.131Z,98874.25
2022-10-13T10:31:57.970Z,98870.75
2022-10-13T10:36:16.887Z,98865.97
2022-10-13T10:40:40.052Z,98862.66
2022-10-13T10:44:48.083Z,98853.06
2022-10-13T10:48:55.575Z,98852.88
2022-10-13T10:53:00.534Z,98847.91
2022-10-13T10:57:19.938Z,98836.75
2022-10-13T11:01:37.174Z,98830.41
2022-10-13T11:05:57.614Z,98820.00
2022-10-13T11:09:59.556Z,98826.34
2022-10-13T11:14:07.743Z,98818.59
2022-10-13T11:18:47.867Z,98810.44
2022-10-13T11:22:59.356Z,98813.91
2022-10-13T11:27:16.799Z,98808.00
2022-10-13T11:31:47.464Z,98803.75
2022-10-13T11:35:49.426Z,98806.19
2022-10-13T11:39:59.877Z,98795.66
2022-10-13T11:44:12.205Z,98793.50
2022-10-13T11:48:32.982Z,98779.84
2022-10-13T11:52:50.017Z,98773.88
2022-10-13T11:56:54.945Z,98774.16
2022-10-13T12:01:08.893Z,98770.84
2022-10-13T12:05:22.604Z,98762.09
2022-10-13T12:09:25.078Z,98766.06
2022-10-13T12:13:32.988Z,98764.16
2022-10-13T12:17:36.025Z,98752.78
2022-10-13T12:21:49.657Z,98754.84
2022-10-13T12:25:58.068Z,98741.53
2022-10-13T12:30:01.676Z,98747.06
2022-10-13T12:34:04.656Z,98751.94
2022-10-13T12:38:16.014Z,98737.94
2022-10-13T12:42:18.530Z,98743.53
2022-10-13T12:46:42.782Z,98746.13
2022-10-13T12:50:44.865Z,98757.03
2022-10-13T12:54:57.908Z,98736.78
2022-10-13T12:59:00.489Z,98733.16
2022-10-13T13:03:04.963Z,98734.97
2022-10-13T13:07:35.254Z,98736.69
2022-10-13T13:11:39.063Z,98736.94
2022-10-13T13:15:44.403Z,98734.03
2022-10-13T13:19:51.895Z,98736.41
2022-10-13T13:23:54.276Z,98732.19
2022-10-13T13:27:56.312Z,98732.66
2022-10-13T13:31:58.574Z,98730.97
2022-10-13T13:36:00.503Z,98725.59
2022-10-13T13:40:02.655Z,98716.91
2022-10-13T13:44:05.209Z,98718.22
2022-10-13T13:48:08.099Z,98707.50
2022-10-13T13:52:10.279Z,98705.16
2022-10-13T13:56:14.270Z,98709.66
2022-10-13T14:00:17.744Z,98713.16
2022-10-13T14:04:25.036Z,98705.91
2022-10-13T14:08:30.602Z,98694.16
2022-10-13T14:12:33.363Z,98693.53
2022-10-13T14:16:35.358Z,98684.03
2022-10-13T14:20:42.320Z,98687.94
2022-10-13T14:24:44.267Z,98689.72
2022-10-13T14:28:46.210Z,98696.34
2022-10-13T14:32:48.163Z,98690.34
2022-10-13T14:36:50.100Z,98700.09
2022-10-13T14:40:53.019Z,98702.56
2022-10-13T14:44:55.453Z,98708.56
2022-10-13T14:48:58.995Z,98698.19
2022-10-13T14:53:00.967Z,98696.28
2022-10-13T14:57:05.731Z,98690.94
2022-10-13T15:01:07.619Z,98692.75
2022-10-13T15:05:10.195Z,98679.88
2022-10-13T15:09:12.885Z,98689.63
2022-10-13T15:13:14.866Z,98693.81
2022-10-13T15:17:18.313Z,98690.56
2022-10-13T15:21:20.666Z,98688.09
2022-10-13T15:25:22.581Z,98681.00
2022-10-13T15:29:24.547Z,98687.09
2022-10-13T15:33:29.392Z,98688.88
2022-10-13T15:37:31.647Z,98688.91
2022-10-13T15:41:33.562Z,98689.25
2022-10-13T15:45:35.993Z,98688.66
2022-10-13T15:49:38.228Z,98684.72
2022-10-13T15:53:40.189Z,98691.53
2022-10-13T15:57:42.292Z,98688.66
2022-10-13T16:01:44.308Z,98685.13
2022-10-13T16:05:47.109Z,98682.25
2022-10-13T16:09:49.182Z,98684.13
2022-10-13T16:13:52.341Z,98687.88
2022-10-13T16:17:54.882Z,98687.47
2022-10-13T16:21:56.856Z,98684.25
2022-10-13T16:25:58.796Z,98684.97
2022-10-13T16:30:01.622Z,98686.16
2022-10-13T16:34:04.556Z,98690.72
2022-10-13T16:38:06.606Z,98683.84
2022-10-13T16:42:08.616Z,98700.72
2022-10-13T16:46:15.397Z,98697.69
2022-10-13T16:50:17.762Z,98707.47
2022-10-13T16:54:19.744Z,98707.59
2022-10-13T16:58:21.726Z,98702.63
2022-10-13T17:02:23.736Z,98712.13
2022-10-13T17:06:28.752Z,98720.09
2022-10-13T17:10:30.789Z,98715.19
2022-10-13T17:14:36.066Z,98727.19
2022-10-13T17:18:38.168Z,98728.59
2022-10-13T17:22:40.943Z,98726.22
2022-10-13T17:26:43.058Z,98730.22
2022-10-13T17:30:46.594Z,98724.75
2022-10-13T17:34:48.545Z,98729.34
2022-10-13T17:38:51.716Z,98712.63
2022-10-13T17:42:55.136Z,98727.56
2022-10-13T17:46:57.286Z,98735.94
2022-10-13T17:51:04.570Z,98738.25
2022-10-13T17:55:06.705Z,98734.84
2022-10-13T17:59:09.924Z,98732.72
2022-10-13T18:03:12.209Z,98738.84
2022-10-13T18:07:14.231Z,98740.38
2022-10-13T18:11:17.770Z,98737.00
2022-10-13T18:15:19.916Z,98747.03
2022-10-13T18:19:22.617Z,98751.94
2022-10-13T18:23:24.591Z,98755.72
2022-10-13T18:27:26.586Z,98763.03
2022-10-13T18:31:31.090Z,98764.78
2022-10-13T18:35:33.438Z,98771.63
2022-10-13T18:39:35.693Z,98771.72
2022-10-13T18:43:38.387Z,98783.31
2022-10-13T18:47:41.291Z,98769.47
2022-10-13T18:51:44.465Z,98763.59
2022-10-13T18:55:48.157Z,98761.28
2022-10-13T18:59:50.716Z,98765.88
2022-10-13T19:03:55.038Z,98770.09
2022-10-13T19:07:57.226Z,98768.22
2022-10-13T19:11:59.315Z,98766.69
2022-10-13T19:16:02.156Z,98759.38
2022-10-13T19:20:04.674Z,98759.03
2022-10-13T19:24:07.884Z,98761.22
2022-10-13T19:28:09.944Z,98759.94
2022-10-13T19:32:11.953Z,98754.38
2022-10-13T19:36:41.897Z,98749.84
2022-10-13T19:40:49.796Z,98746.75
2022-10-13T19:44:51.947Z,98746.28
2022-10-13T19:48:54.206Z,98747.34
2022-10-13T19:52:59.079Z,98755.28
2022-10-13T19:57:01.824Z,98752.34
2022-10-13T20:01:08.308Z,98759.34
2022-10-13T20:05:10.603Z,98758.56
2022-10-13T20:09:13.210Z,98758.63
2022-10-13T20:13:15.161Z,98761.03
2022-10-13T20:17:17.182Z,98768.63
2022-10-13T20:21:19.164Z,98774.00
2022-10-13T20:25:21.321Z,98777.22
2022-10-13T20:29:23.576Z,98771.09
2022-10-13T20:33:25.585Z,98782.34
2022-10-13T20:37:28.558Z,98775.75
2022-10-13T20:41:32.160Z,98778.72
2022-10-13T20:45:40.973Z,98782.22
2022-10-13T20:49:47.092Z,98789.75
2022-10-13T20:53:50.915Z,98784.78
2022-10-13T20:57:52.935Z,98787.72
2022-10-13T21:01:54.933Z,98791.19
2022-10-13T21:05:58.193Z,98783.47
2022-10-13T21:10:01.113Z,98796.59
2022-10-13T21:14:06.827Z,98794.19
2022-10-13T21:18:09.744Z,98785.97
2022-10-13T21:22:13.646Z,98797.75
2022-10-13T21:26:21.130Z,98792.16
2022-10-13T21:30:23.883Z,98786.84
2022-10-13T21:34:25.860Z,98783.63
2022-10-13T21:38:29.508Z,98789.75
2022-10-13T21:42:33.103Z,98787.38
2022-10-13T21:46:38.960Z,98779.88
2022-10-13T21:50:41.727Z,98787.09
2022-10-13T21:54:43.915Z,98776.13
2022-10-13T21:58:46.919Z,98785.50
2022-10-13T22:02:49.192Z,98779.34
2022-10-13T22:06:55.632Z,98776.94
2022-10-13T22:11:00.281Z,98776.41
2022-10-13T22:15:02.454Z,98788.16
2022-10-13T22:19:05.883Z,98795.09
2022-10-13T22:23:10.769Z,98796.41
2022-10-13T22:27:13.188Z,98796.94
2022-10-13T22:31:16.260Z,98786.16
2022-10-13T22:35:27.925Z,98776.56
2022-10-13T22:39:32.727Z,98774.69
2022-10-13T22:43:48.118Z,98781.34
2022-10-13T22:47:54.171Z,98780.84
2022-10-13T22:51:56.196Z,98774.44
2022-10-13T22:55:58.931Z,98780.84
2022-10-13T23:00:01.014Z,98779.22
2022-10-13T23:04:03.735Z,98777.00
2022-10-13T23:08:05.699Z,98778.88
2022-10-13T23:12:09.484Z,98779.94
2022-10-13T23:16:17.191Z,98775.94
2022-10-13T23:20:19.316Z,98778.34
2022-10-13T23:24:21.756Z,98777.00
2022-10-13T23:28:24.152Z,98776.44
2022-10-13T23:32:26.153Z,98766.78
2022-10-13T23:36:31.124Z,98771.09
2022-10-13T23:40:34.235Z,98780.66
2022-10-13T23:44:36.362Z,98778.19
2022-10-13T23:48:40.123Z,98779.72
2022-10-13T23:52:42.090Z,98795.19
2022-10-13T23:56:44.378Z,98796.25
